createdAt,value
2023-05-09T00:00:20.527Z,64.52
2023-05-09T00:02:48.845Z,63.64
2023-05-09T00:05:17.917Z,63.02
2023-05-09T00:07:46.127Z,64.10
2023-05-09T00:10:16.254Z,64.01
2023-05-09T00:12:44.901Z,64.76
2023-05-09T00:15:14.013Z,64.63
2023-05-09T00:17:42.562Z,63.94
2023-05-09T00:20:12.593Z,64.15
2023-05-09T00:22:41.696Z,64.33
2023-05-09T00:25:12.310Z,64.54
2023-05-09T00:27:42.028Z,64.14
2023-05-09T00:30:10.825Z,63.41
2023-05-09T00:32:40.386Z,63.43
2023-05-09T00:35:10.285Z,64.53
2023-05-09T00:37:38.979Z,63.62
2023-05-09T00:40:09.309Z,64.16
2023-05-09T00:42:38.266Z,62.80
2023-05-09T00:45:10.163Z,63.67
2023-05-09T00:47:42.646Z,63.30
2023-05-09T00:50:11.585Z,63.42
2023-05-09T00:52:40.411Z,64.18
2023-05-09T00:55:09.976Z,64.17
2023-05-09T00:57:38.498Z,65.68
2023-05-09T01:00:13.485Z,64.15
2023-05-09T01:02:43.247Z,65.85
2023-05-09T01:05:12.667Z,64.85
2023-05-09T01:07:47.655Z,65.84
2023-05-09T01:10:24.379Z,64.52
2023-05-09T01:13:00.443Z,65.58
2023-05-09T01:15:35.462Z,66.06
2023-05-09T01:18:10.502Z,66.87
2023-05-09T01:20:45.692Z,67.53
2023-05-09T01:23:36.991Z,68.39
2023-05-09T01:26:07.382Z,66.87
2023-05-09T01:28:52.949Z,67.93
2023-05-09T01:31:24.828Z,67.77
2023-05-09T01:33:58.398Z,66.90
2023-05-09T01:36:33.216Z,67.60
2023-05-09T01:39:04.357Z,67.56
2023-05-09T01:41:37.489Z,68.54
2023-05-09T01:44:09.629Z,67.87
2023-05-09T01:46:40.576Z,67.50
2023-05-09T01:49:10.439Z,68.62
2023-05-09T01:51:42.942Z,67.69
2023-05-09T01:54:13.842Z,69.10
2023-05-09T01:56:44.100Z,70.43
2023-05-09T01:59:16.475Z,70.56
2023-05-09T02:01:48.411Z,71.25
2023-05-09T02:04:19.201Z,70.30
2023-05-09T02:06:51.986Z,71.31
2023-05-09T02:09:21.933Z,71.39
2023-05-09T02:11:50.551Z,70.60
2023-05-09T02:14:19.143Z,72.31
2023-05-09T02:16:49.867Z,71.47
2023-05-09T02:19:18.833Z,71.23
2023-05-09T02:21:47.111Z,71.40
2023-05-09T02:24:15.724Z,71.79
2023-05-09T02:26:44.636Z,72.26
2023-05-09T02:29:13.653Z,71.65
2023-05-09T02:31:43.938Z,70.96
2023-05-09T02:34:15.027Z,71.57
2023-05-09T02:36:43.847Z,72.50
2023-05-09T02:39:12.184Z,71.52
2023-05-09T02:41:40.480Z,72.17
2023-05-09T02:44:08.849Z,72.37
2023-05-09T02:46:37.081Z,72.42
2023-05-09T02:49:05.504Z,73.26
2023-05-09T02:51:35.215Z,73.37
2023-05-09T02:54:03.673Z,74.08
2023-05-09T02:56:32.328Z,74.84
2023-05-09T02:59:00.545Z,74.97
2023-05-09T03:01:28.882Z,74.26
2023-05-09T03:03:57.453Z,73.98
2023-05-09T03:06:26.663Z,72.87
2023-05-09T03:08:56.848Z,72.98
2023-05-09T03:11:26.679Z,73.32
2023-05-09T03:13:55.048Z,72.25
2023-05-09T03:16:24.066Z,72.13
2023-05-09T03:18:53.106Z,70.97
2023-05-09T03:21:21.566Z,70.68
2023-05-09T03:23:50.297Z,72.32
2023-05-09T03:26:20.164Z,72.44
2023-05-09T03:28:49.074Z,73.16
2023-05-09T03:31:17.693Z,72.60
2023-05-09T03:33:46.189Z,73.37
2023-05-09T03:36:14.405Z,73.76
2023-05-09T03:38:46.018Z,72.83
2023-05-09T03:41:16.580Z,72.35
2023-05-09T03:43:48.486Z,70.74
2023-05-09T03:46:17.580Z,70.33
2023-05-09T03:48:49.496Z,69.94
2023-05-09T03:51:18.696Z,70.13
2023-05-09T03:53:48.082Z,71.04
2023-05-09T03:56:16.824Z,70.83
2023-05-09T03:58:52.598Z,71.81
2023-05-09T04:01:22.131Z,71.98
2023-05-09T04:03:50.612Z,71.70
2023-05-09T04:06:18.755Z,72.42
2023-05-09T04:08:49.926Z,71.39
2023-05-09T04:11:19.156Z,70.49
2023-05-09T04:13:48.840Z,70.32
2023-05-09T04:16:28.090Z,70.17
2023-05-09T04:18:56.878Z,69.46
2023-05-09T04:21:29.135Z,69.98
2023-05-09T04:24:00.977Z,69.43
2023-05-09T04:26:39.529Z,68.48
2023-05-09T04:29:11.625Z,68.78
2023-05-09T04:31:42.075Z,68.25
2023-05-09T04:34:13.644Z,68.51
2023-05-09T04:36:42.346Z,68.21
2023-05-09T04:39:11.212Z,67.91
2023-05-09T04:41:44.552Z,66.63
2023-05-09T04:44:13.942Z,67.30
2023-05-09T04:46:44.686Z,67.33
2023-05-09T04:49:13.783Z,67.38
2023-05-09T04:51:44.195Z,66.66
2023-05-09T04:54:12.775Z,67.09
2023-05-09T04:56:42.500Z,66.75
2023-05-09T04:59:10.937Z,65.38
2023-05-09T05:01:39.522Z,64.73
2023-05-09T05:04:10.338Z,63.43
2023-05-09T05:06:38.802Z,64.87
2023-05-09T05:09:07.884Z,64.37
2023-05-09T05:11:36.366Z,64.37
2023-05-09T05:14:06.147Z,64.13
2023-05-09T05:17:01.045Z,64.47
2023-05-09T05:19:31.227Z,60.37
2023-05-09T05:22:00.042Z,61.17
2023-05-09T05:24:29.488Z,61.49
2023-05-09T05:26:57.985Z,60.96
2023-05-09T05:29:27.553Z,61.96
2023-05-09T05:31:56.318Z,60.71
2023-05-09T05:34:24.797Z,60.03
2023-05-09T05:36:54.851Z,60.73
2023-05-09T05:39:24.136Z,60.35
2023-05-09T05:41:54.320Z,58.32
2023-05-09T05:44:22.742Z,59.42
2023-05-09T05:46:51.242Z,58.73
2023-05-09T05:49:19.800Z,59.49
2023-05-09T05:51:48.330Z,58.96
2023-05-09T05:54:18.751Z,58.14
2023-05-09T05:56:47.134Z,56.74
2023-05-09T05:59:16.390Z,56.93
2023-05-09T06:01:45.135Z,56.70
2023-05-09T06:04:13.840Z,57.56
2023-05-09T06:06:44.235Z,57.34
2023-05-09T06:09:12.649Z,57.11
2023-05-09T06:11:43.143Z,56.56
2023-05-09T06:14:11.439Z,57.24
2023-05-09T06:16:41.705Z,56.41
2023-05-09T06:19:10.410Z,56.41
2023-05-09T06:21:38.953Z,53.78
2023-05-09T06:24:14.409Z,54.90
2023-05-09T06:26:51.558Z,55.24
2023-05-09T06:29:20.230Z,54.54
2023-05-09T06:31:50.070Z,54.64
2023-05-09T06:34:18.200Z,54.50
2023-05-09T06:36:46.607Z,53.95
2023-05-09T06:39:14.886Z,54.70
2023-05-09T06:41:43.729Z,53.78
2023-05-09T06:44:13.456Z,52.85
2023-05-09T06:46:41.831Z,52.91
2023-05-09T06:49:11.374Z,52.13
2023-05-09T06:51:40.114Z,49.93
2023-05-09T06:54:08.697Z,42.12
2023-05-09T06:56:37.804Z,40.25
2023-05-09T06:59:06.194Z,39.40
2023-05-09T07:01:36.052Z,38.86
2023-05-09T07:04:04.477Z,37.14
2023-05-09T07:06:33.306Z,38.00
2023-05-09T07:09:01.969Z,36.67
2023-05-09T07:11:30.136Z,35.53
2023-05-09T07:13:58.457Z,36.08
2023-05-09T07:16:28.720Z,36.35
2023-05-09T07:18:58.638Z,36.84
2023-05-09T07:21:27.175Z,37.27
2023-05-09T07:23:55.589Z,38.12
2023-05-09T07:26:24.499Z,35.97
2023-05-09T07:28:53.710Z,36.75
2023-05-09T07:31:22.309Z,35.21
2023-05-09T07:33:50.731Z,37.70
2023-05-09T07:36:20.577Z,36.69
2023-05-09T07:38:50.617Z,32.90
2023-05-09T07:41:18.761Z,35.69
2023-05-09T07:43:47.726Z,37.27
2023-05-09T07:46:16.246Z,34.88
2023-05-09T07:48:44.715Z,32.75
2023-05-09T07:51:13.161Z,36.11
2023-05-09T07:53:42.791Z,34.62
2023-05-09T07:56:12.012Z,35.27
2023-05-09T07:58:40.480Z,34.03
2023-05-09T08:01:09.234Z,31.77
2023-05-09T08:03:37.555Z,31.76
2023-05-09T08:06:05.978Z,32.76
2023-05-09T08:08:34.622Z,32.68
2023-05-09T08:11:06.220Z,32.59
2023-05-09T08:13:34.721Z,31.18
2023-05-09T08:16:03.883Z,32.97
2023-05-09T08:18:32.600Z,32.63
2023-05-09T08:21:01.405Z,31.85
2023-05-09T08:23:30.472Z,30.84
2023-05-09T08:25:59.299Z,30.67
2023-05-09T08:28:30.160Z,34.29
2023-05-09T08:30:58.914Z,32.80
2023-05-09T08:33:27.017Z,32.81
2023-05-09T08:35:57.083Z,31.13
2023-05-09T08:38:25.774Z,30.91
2023-05-09T08:40:53.958Z,32.13
2023-05-09T08:43:25.498Z,33.44
2023-05-09T08:46:00.583Z,35.19
2023-05-09T08:48:29.786Z,32.02
2023-05-09T08:50:59.434Z,33.15
2023-05-09T08:53:28.316Z,31.52
2023-05-09T08:55:56.926Z,33.49
2023-05-09T08:58:25.280Z,33.39
2023-05-09T09:00:56.613Z,29.78
2023-05-09T09:03:26.423Z,31.84
2023-05-09T09:05:56.547Z,31.74
2023-05-09T09:08:25.665Z,33.57
2023-05-09T09:10:55.351Z,33.52
2023-05-09T09:13:24.493Z,32.55
2023-05-09T09:15:57.628Z,31.22
2023-05-09T09:18:34.352Z,29.91
2023-05-09T09:21:08.382Z,32.09
2023-05-09T09:23:41.061Z,32.46
2023-05-09T09:26:09.138Z,34.31
2023-05-09T09:28:37.723Z,32.28
2023-05-09T09:31:23.900Z,32.96
2023-05-09T09:33:52.597Z,31.44
2023-05-09T09:36:28.052Z,31.08
2023-05-09T09:39:01.487Z,30.81
2023-05-09T09:41:34.012Z,29.41
2023-05-09T09:44:08.896Z,33.54
2023-05-09T09:46:54.715Z,31.92
2023-05-09T09:49:24.374Z,34.07
2023-05-09T09:52:16.922Z,31.66
2023-05-09T09:54:45.952Z,31.69
2023-05-09T09:57:33.641Z,30.01
2023-05-09T10:00:02.253Z,32.85
2023-05-09T10:02:34.362Z,31.25
2023-05-09T10:05:11.894Z,30.34
2023-05-09T10:07:40.266Z,31.36
2023-05-09T10:10:10.268Z,31.57
2023-05-09T10:12:39.162Z,31.69
2023-05-09T10:15:10.900Z,32.44
2023-05-09T10:17:40.837Z,32.09
2023-05-09T10:20:11.504Z,33.35
2023-05-09T10:22:41.216Z,33.95
2023-05-09T10:25:15.992Z,29.16
2023-05-09T10:27:47.652Z,30.89
2023-05-09T10:30:19.325Z,31.17
2023-05-09T10:32:55.253Z,33.24
2023-05-09T10:35:28.054Z,32.17
2023-05-09T10:37:58.218Z,31.78
2023-05-09T10:40:28.807Z,35.74
2023-05-09T10:42:57.468Z,32.44
2023-05-09T10:45:26.148Z,35.03
2023-05-09T10:47:57.257Z,32.94
2023-05-09T10:50:26.531Z,30.99
2023-05-09T10:53:08.960Z,29.27
2023-05-09T10:55:38.744Z,32.10
2023-05-09T10:58:25.370Z,31.95
2023-05-09T11:00:57.133Z,33.39
2023-05-09T11:03:28.952Z,33.68
2023-05-09T11:05:58.910Z,33.44
2023-05-09T11:08:28.180Z,31.59
2023-05-09T11:11:00.636Z,31.90
2023-05-09T11:13:33.838Z,35.74
2023-05-09T11:16:12.541Z,31.55
2023-05-09T11:18:55.187Z,33.50
2023-05-09T11:21:23.775Z,33.95
2023-05-09T11:23:55.058Z,34.76
2023-05-09T11:26:24.772Z,33.69
2023-05-09T11:28:55.346Z,34.90
2023-05-09T11:31:23.557Z,32.46
2023-05-09T11:33:58.511Z,34.64
2023-05-09T11:36:33.776Z,33.33
2023-05-09T11:39:05.244Z,34.12
2023-05-09T11:41:41.257Z,33.99
2023-05-09T11:44:17.034Z,32.21
2023-05-09T11:46:47.660Z,30.92
2023-05-09T11:49:17.169Z,33.07
2023-05-09T11:51:46.724Z,33.45
2023-05-09T11:54:15.214Z,33.49
2023-05-09T11:56:44.362Z,33.67
2023-05-09T11:59:15.412Z,32.42
2023-05-09T12:01:44.165Z,31.81
2023-05-09T12:04:12.589Z,33.21
2023-05-09T12:06:41.334Z,34.58
2023-05-09T12:09:12.144Z,32.17
2023-05-09T12:11:40.460Z,31.78
2023-05-09T12:14:09.026Z,33.10
2023-05-09T12:16:46.284Z,31.67
2023-05-09T12:19:15.476Z,31.89
2023-05-09T12:21:43.884Z,33.56
2023-05-09T12:24:13.708Z,32.75
2023-05-09T12:26:41.862Z,33.45
2023-05-09T12:29:10.425Z,33.46
2023-05-09T12:31:38.915Z,34.76
2023-05-09T12:34:08.063Z,33.63
2023-05-09T12:36:37.398Z,32.55
2023-05-09T12:39:10.626Z,31.76
2023-05-09T12:42:00.611Z,34.04
2023-05-09T12:44:30.721Z,32.25
2023-05-09T12:47:00.760Z,31.06
2023-05-09T12:49:29.626Z,34.53
2023-05-09T12:52:00.299Z,30.65
2023-05-09T12:54:31.174Z,30.81
2023-05-09T12:57:00.800Z,29.90
2023-05-09T12:59:30.477Z,31.51
2023-05-09T13:02:00.861Z,30.15
2023-05-09T13:04:29.819Z,32.08
2023-05-09T13:07:00.230Z,30.65
2023-05-09T13:09:28.967Z,29.16
2023-05-09T13:11:59.141Z,28.02
2023-05-09T13:14:29.072Z,32.58
2023-05-09T13:16:57.685Z,32.45
2023-05-09T13:19:26.205Z,32.32
2023-05-09T13:21:56.878Z,31.37
2023-05-09T13:24:25.281Z,31.99
2023-05-09T13:26:53.341Z,33.34
2023-05-09T13:29:21.569Z,32.51
2023-05-09T13:31:51.380Z,32.09
2023-05-09T13:34:20.036Z,29.67
2023-05-09T13:36:48.249Z,30.68
2023-05-09T13:39:17.075Z,32.11
2023-05-09T13:41:45.967Z,31.93
2023-05-09T13:44:15.860Z,31.84
2023-05-09T13:46:44.334Z,30.43
2023-05-09T13:49:15.071Z,31.38
2023-05-09T13:51:43.349Z,31.86
2023-05-09T13:54:17.207Z,32.79
2023-05-09T13:56:46.003Z,33.65
2023-05-09T13:59:15.751Z,31.29
2023-05-09T14:01:44.593Z,31.04
2023-05-09T14:04:14.809Z,32.63
2023-05-09T14:06:48.216Z,32.19
2023-05-09T14:09:17.446Z,30.77
2023-05-09T14:11:45.849Z,31.63
2023-05-09T14:14:14.341Z,31.08
2023-05-09T14:16:42.723Z,32.60
2023-05-09T14:19:11.455Z,30.42
2023-05-09T14:21:42.778Z,32.21
2023-05-09T14:24:15.036Z,32.14
2023-05-09T14:26:45.494Z,32.16
2023-05-09T14:29:14.052Z,32.48
2023-05-09T14:31:42.585Z,32.50
2023-05-09T14:34:13.259Z,31.79
2023-05-09T14:36:43.584Z,34.02
2023-05-09T14:39:11.893Z,32.42
2023-05-09T14:41:40.770Z,31.68
2023-05-09T14:44:09.025Z,32.22
2023-05-09T14:46:38.009Z,34.03
2023-05-09T14:49:09.744Z,31.86
2023-05-09T14:51:38.002Z,33.07
2023-05-09T14:54:08.425Z,31.30
2023-05-09T14:56:36.951Z,34.15
2023-05-09T14:59:05.274Z,33.06
2023-05-09T15:01:34.240Z,33.05
2023-05-09T15:04:02.682Z,32.29
2023-05-09T15:06:31.078Z,32.68
2023-05-09T15:08:59.901Z,30.88
2023-05-09T15:11:36.410Z,32.69
2023-05-09T15:14:15.179Z,32.85
2023-05-09T15:16:44.358Z,32.81
2023-05-09T15:19:12.874Z,34.17
2023-05-09T15:21:41.530Z,33.27
2023-05-09T15:24:10.734Z,33.64
2023-05-09T15:26:40.490Z,32.97
2023-05-09T15:29:09.110Z,31.63
2023-05-09T15:31:38.398Z,31.04
2023-05-09T15:34:08.054Z,31.01
2023-05-09T15:36:36.383Z,29.92
2023-05-09T15:39:05.208Z,31.21
2023-05-09T15:41:34.320Z,30.97
2023-05-09T15:44:04.395Z,33.75
2023-05-09T15:46:34.213Z,33.86
2023-05-09T15:49:03.285Z,31.75
2023-05-09T15:51:32.751Z,31.67
2023-05-09T15:54:01.380Z,31.37
2023-05-09T15:56:29.786Z,32.42
2023-05-09T15:58:59.658Z,33.79
2023-05-09T16:01:33.947Z,33.63
2023-05-09T16:04:05.467Z,33.71
2023-05-09T16:06:34.558Z,31.26
2023-05-09T16:09:04.722Z,33.52
2023-05-09T16:11:33.235Z,34.70
2023-05-09T16:14:01.662Z,32.73
2023-05-09T16:16:31.414Z,33.01
2023-05-09T16:19:00.684Z,34.50
2023-05-09T16:21:29.649Z,34.21
2023-05-09T16:23:59.029Z,35.02
2023-05-09T16:26:27.181Z,35.42
2023-05-09T16:28:55.648Z,35.87
2023-05-09T16:31:26.872Z,35.63
2023-05-09T16:33:58.864Z,36.44
2023-05-09T16:36:29.145Z,36.42
2023-05-09T16:38:57.370Z,36.04
2023-05-09T16:41:25.950Z,36.32
2023-05-09T16:43:54.328Z,38.51
2023-05-09T16:46:22.858Z,39.73
2023-05-09T16:48:52.598Z,38.12
2023-05-09T16:51:22.749Z,39.18
2023-05-09T16:53:51.625Z,40.11
2023-05-09T16:56:20.034Z,39.86
2023-05-09T16:58:49.502Z,40.25
2023-05-09T17:01:17.568Z,41.69
2023-05-09T17:03:46.107Z,40.04
2023-05-09T17:06:14.686Z,40.09
2023-05-09T17:08:44.611Z,41.20
2023-05-09T17:11:13.345Z,40.38
2023-05-09T17:13:42.729Z,40.92
2023-05-09T17:16:11.486Z,41.22
2023-05-09T17:18:39.995Z,41.58
2023-05-09T17:21:08.593Z,42.68
2023-05-09T17:23:36.863Z,42.31
2023-05-09T17:26:07.306Z,43.11
2023-05-09T17:28:36.101Z,44.31
2023-05-09T17:31:05.850Z,43.34
2023-05-09T17:33:34.681Z,44.33
2023-05-09T17:36:03.148Z,43.55
2023-05-09T17:38:31.595Z,43.45
2023-05-09T17:41:00.003Z,42.59
2023-05-09T17:43:33.097Z,44.04
2023-05-09T17:46:01.479Z,43.87
2023-05-09T17:48:30.405Z,45.36
2023-05-09T17:50:58.917Z,45.41
2023-05-09T17:53:27.225Z,43.98
2023-05-09T17:55:55.438Z,44.99
2023-05-09T17:58:24.214Z,45.80
2023-05-09T18:00:55.551Z,46.41
2023-05-09T18:03:23.804Z,46.77
2023-05-09T18:05:51.802Z,45.78
2023-05-09T18:08:20.565Z,45.15
2023-05-09T18:10:49.245Z,47.53
2023-05-09T18:13:18.516Z,47.00
2023-05-09T18:15:46.809Z,48.83
2023-05-09T18:18:17.177Z,47.35
2023-05-09T18:20:47.591Z,48.04
2023-05-09T18:23:16.157Z,48.78
2023-05-09T18:25:48.521Z,48.00
2023-05-09T18:28:17.917Z,49.35
2023-05-09T18:30:46.445Z,49.99
2023-05-09T18:33:16.691Z,50.13
2023-05-09T18:35:44.779Z,48.34
2023-05-09T18:38:13.406Z,49.62
2023-05-09T18:40:42.876Z,49.75
2023-05-09T18:43:12.491Z,49.26
2023-05-09T18:45:45.293Z,50.53
2023-05-09T18:48:13.629Z,51.97
2023-05-09T18:50:44.194Z,51.77
2023-05-09T18:53:12.863Z,51.39
2023-05-09T18:55:41.748Z,50.70
2023-05-09T18:58:10.051Z,50.78
2023-05-09T19:00:39.512Z,50.51
2023-05-09T19:03:08.015Z,51.21
2023-05-09T19:05:36.485Z,51.78
2023-05-09T19:08:06.751Z,51.61
2023-05-09T19:10:36.661Z,51.82
2023-05-09T19:13:08.458Z,51.78
2023-05-09T19:15:37.412Z,50.28
2023-05-09T19:18:06.242Z,50.83
2023-05-09T19:20:34.617Z,51.59
2023-05-09T19:23:03.182Z,52.62
2023-05-09T19:25:34.076Z,53.03
2023-05-09T19:28:02.979Z,52.75
2023-05-09T19:30:31.612Z,52.90
2023-05-09T19:32:59.833Z,52.56
2023-05-09T19:35:28.581Z,51.56
2023-05-09T19:37:56.978Z,50.40
2023-05-09T19:40:25.383Z,51.77
2023-05-09T19:42:55.728Z,51.40
2023-05-09T19:45:25.077Z,51.72
2023-05-09T19:47:55.869Z,51.98
2023-05-09T19:50:27.996Z,51.54
2023-05-09T19:52:57.205Z,52.84
2023-05-09T19:55:31.089Z,52.37
2023-05-09T19:58:01.107Z,53.61
2023-05-09T20:00:29.545Z,52.77
2023-05-09T20:02:58.013Z,53.39
2023-05-09T20:05:26.618Z,53.12
2023-05-09T20:07:54.905Z,53.04
2023-05-09T20:10:23.278Z,53.71
2023-05-09T20:12:53.122Z,52.97
2023-05-09T20:15:23.494Z,53.73
2023-05-09T20:17:52.159Z,53.79
2023-05-09T20:20:20.633Z,53.90
2023-05-09T20:22:49.661Z,54.96
2023-05-09T20:25:18.668Z,55.38
2023-05-09T20:27:47.497Z,54.98
2023-05-09T20:30:17.487Z,54.99
2023-05-09T20:32:48.319Z,55.43
2023-05-09T20:36:09.803Z,55.05
2023-05-09T20:38:39.136Z,55.79
2023-05-09T20:41:07.718Z,54.72
2023-05-09T20:43:36.474Z,55.13
2023-05-09T20:46:04.830Z,56.00
2023-05-09T20:48:34.858Z,55.16
2023-05-09T20:51:02.978Z,53.78
2023-05-09T20:53:32.541Z,53.87
2023-05-09T20:56:01.329Z,53.88
2023-05-09T20:58:31.726Z,54.72
2023-05-09T21:01:00.259Z,52.87
2023-05-09T21:03:28.758Z,54.44
2023-05-09T21:05:59.590Z,53.14
2023-05-09T21:08:28.043Z,53.27
2023-05-09T21:10:56.410Z,53.49
2023-05-09T21:13:24.933Z,52.79
2023-05-09T21:15:53.405Z,53.64
2023-05-09T21:18:22.316Z,53.93
2023-05-09T21:20:50.689Z,52.88
2023-05-09T21:23:20.589Z,54.25
2023-05-09T21:25:48.741Z,53.41
2023-05-09T21:28:17.423Z,52.71
2023-05-09T21:30:53.394Z,54.22
2023-05-09T21:33:21.979Z,54.40
2023-05-09T21:35:51.137Z,53.92
2023-05-09T21:38:21.090Z,54.06
2023-05-09T21:40:51.458Z,54.95
2023-05-09T21:43:20.477Z,53.34
2023-05-09T21:45:48.576Z,54.45
2023-05-09T21:48:16.621Z,54.77
2023-05-09T21:50:46.124Z,55.14
2023-05-09T21:53:14.921Z,53.79
2023-05-09T21:55:44.606Z,53.89
2023-05-09T21:58:12.774Z,53.64
2023-05-09T22:00:42.075Z,54.10
2023-05-09T22:03:10.958Z,54.92
2023-05-09T22:05:39.385Z,55.00
2023-05-09T22:08:07.776Z,54.75
2023-05-09T22:10:38.085Z,54.66
2023-05-09T22:13:08.004Z,53.99
2023-05-09T22:15:36.165Z,53.87
2023-05-09T22:18:04.576Z,54.19
2023-05-09T22:20:33.316Z,54.34
2023-05-09T22:23:01.805Z,53.58
2023-05-09T22:25:29.899Z,53.20
2023-05-09T22:27:58.250Z,53.92
2023-05-09T22:30:28.063Z,54.19
2023-05-09T22:32:56.277Z,53.61
2023-05-09T22:35:25.096Z,53.65
2023-05-09T22:37:53.888Z,53.81
2023-05-09T22:40:22.002Z,54.01
2023-05-09T22:42:50.286Z,53.88
2023-05-09T22:45:19.846Z,54.97
2023-05-09T22:47:50.338Z,53.47
2023-05-09T22:50:19.251Z,53.29
2023-05-09T22:52:47.581Z,54.02
2023-05-09T22:55:15.747Z,53.96
2023-05-09T22:57:44.605Z,53.99
2023-05-09T23:00:14.712Z,53.02
2023-05-09T23:02:43.304Z,53.03
2023-05-09T23:05:13.125Z,53.05
2023-05-09T23:07:41.279Z,52.68
2023-05-09T23:10:09.955Z,53.30
2023-05-09T23:12:38.402Z,53.70
2023-05-09T23:15:10.089Z,53.69
2023-05-09T23:17:38.569Z,53.60
2023-05-09T23:20:07.931Z,53.82
2023-05-09T23:22:37.683Z,54.46
2023-05-09T23:25:07.301Z,52.28
2023-05-09T23:27:35.532Z,53.57
2023-05-09T23:30:03.773Z,53.27
2023-05-09T23:32:32.331Z,53.42
2023-05-09T23:35:00.962Z,53.84
2023-05-09T23:37:29.729Z,52.57
2023-05-09T23:39:59.390Z,53.37
2023-05-09T23:42:27.676Z,53.32
2023-05-09T23:44:56.043Z,53.55
2023-05-09T23:47:24.514Z,53.46
2023-05-09T23:49:53.301Z,53.80
2023-05-09T23:52:21.579Z,53.63
2023-05-09T23:54:50.375Z,53.94
2023-05-09T23:57:19.913Z,53.09
2023-05-09T23:59:48.526Z,53.34
